Gaslog data for C5

Go Back   Gas Savers - Fuel Efficiency Forum > Garage > C5
Add Garage Entry Top Ten Entries Search the Garage


Welcome, non logged-in user
Your Garage


Gaslog data for C5
Date Distance Fuel Used Cost of Fuel Notes MPG(US)
02/25/2010 173.9 9.747 3.13 17.84
02/15/2010 153.7 9.37 3.09 16.40
02/04/2010 143.3 8.53 3.15 16.79
01/30/2010 195.4 11.397 3.2 17.14
12/20/2009 44.4 1.498 3.1595% freeway 70 MPH cruise control29.63
12/18/2009 47.9 3.4 3.1 14.08
11/28/2009 280.8 13.53 3.13 20.75
11/15/2009 327.6 15.11 3.15 21.68
10/31/2009 277.4 15.643 3.15 17.73
10/16/2009 115.1 6.685 3.1519.4 MPG according to the DIC17.21
10/04/2009 64.8 3.067 3.25 21.12
10/03/2009 339.9 20.341 3.25DIC reported 17.3 MPG16.71
09/04/2009 167.4 10.67 3.25 15.68
08/21/2009 79.1 5.3 3.12 14.92
08/07/2009 161 12.785 3.5 12.59
07/27/2009 173.9 12.21 3.05 14.24
07/16/2009 148.1 9.89 2.99 14.97
06/26/2009 360.7 16.318 3.16 22.10
06/17/2009 275.4 11.981 3.3Averaged 80 mph at 2000 rpm with several 140 mph runs in there22.98
06/15/2009 513.4 17.835 3.3San Diego to Fair Field. 90% of the trip at about 69 MPH. Speed varied because of traffic and the need to kill bordom28.78
06/14/2009 246.1 14.891 3.3 16.52
06/05/2009 39.5 2.601 3.05DIC noted 16 mpg15.18
06/02/2009 72.6 4.6 3DIC read 15.6 mpg15.78
05/28/2009 178.6 10.882 2.99DIC read 17.4 MPG16.41
05/21/2009 168.4 9.5 2.8D.I.C reported 18.6 mpg17.72
05/15/2009 65.9 3.88 2.7 16.98


All times are GMT -6. The time now is 08:53 AM.


Copyright 2005-2008 GasSavers.Org